Tropical Cyclones
[Index]
Main Index Home Page Stock Weather Photos Extreme Storms Discussion Storm News and Storm Chasing Reports Tropical Cyclones / Hurricanes / Typhoons Weather Data and Links Wild Fires / Bushfires Weather Observation Techniques Weather Picture Catalogue Tornado Pictures and Reports Stock Video Footage and DVDs for sale
Season 1991-1992 Tropical Cyclone DAMAN Track Map
Season 1991-1992 Summaries: [BoM-AU] [JTWC-AU] [JTWC-SIO] [JTWC-SPAC] [JTWC-SH]
<<- Previous TC | JTWC 1991-1992 Season | Next TC ->>

click for intensity scale information  Lat/long Grid: Show Hide

 Date Labels: Show Hide

Joint Typhoon Warning Centre Cyclone Data

Name: DAMAN

13 Feb 1992 00:00 UTC to 19 Feb 1992 18:00 UTC

    date/time    lat    long     hPa   cat  kts
1992-02-13 00    8.6   179.0W                 20          
1992-02-13 06    8.7   179.7                  25          
1992-02-13 12    8.8   178.4                  25          
1992-02-13 18    9.1   176.9                  25          
1992-02-14 00    9.8   175.4                  30          
1992-02-14 06   10.6   173.9                  30          
1992-02-14 12   11.5   172.6                  35          
1992-02-14 18   12.1   171.2                  35          
1992-02-15 00   12.7   169.9            1     40          
1992-02-15 06   13.2   168.6            1     45          
1992-02-15 12   13.7   167.2            2     55          
1992-02-15 18   14.4   166.0            2     60          
1992-02-16 00   15.2   164.7            2     65          
1992-02-16 06   16.1   163.4            2     70          
1992-02-16 12   17.2   162.6            3     75          
1992-02-16 18   18.3   161.9            3     80          
1992-02-17 00   19.6   161.4            3     85          
1992-02-17 06   21.1   160.9            3     85          
1992-02-17 12   22.8   160.4            3     80          
1992-02-17 18   24.7   159.9            3     75          
1992-02-18 00   26.3   158.9            2     70          
1992-02-18 06   27.4   157.7            2     65          
1992-02-18 12   28.4   156.6            2     55          
1992-02-18 18   29.4   155.8            1     50          
1992-02-19 00   30.2   155.7            1     45          
1992-02-19 06   31.1   156.2            1     40          
1992-02-19 12   32.0   157.6            1     40          
1992-02-19 18   32.9   159.3                  35          
Winds are 1-min average.

Tropical cyclone tracks developed by Michael Bath using data from the Joint Typhoon Warning Centre Best Tracks and Google Maps.


[Australian Severe Weather index] [Copyright Notice] [Email Contacts] [Search This Site] [Privacy Policy]
Document: tropical_cyclone_daman.htm Updated: 18 September 2016